createdAt,value
2023-05-20T00:00:03.777Z,11.73
2023-05-20T00:02:31.608Z,8.45
2023-05-20T00:04:59.512Z,12.20
2023-05-20T00:07:28.774Z,11.68
2023-05-20T00:09:56.608Z,6.53
2023-05-20T00:12:24.348Z,8.40
2023-05-20T00:14:53.756Z,6.65
2023-05-20T00:17:22.306Z,10.38
2023-05-20T00:19:50.033Z,8.65
2023-05-20T00:22:17.791Z,9.43
2023-05-20T00:24:46.871Z,6.95
2023-05-20T00:27:14.593Z,8.23
2023-05-20T00:29:42.467Z,11.82
2023-05-20T00:32:10.352Z,9.45
2023-05-20T00:34:38.460Z,8.10
2023-05-20T00:37:06.651Z,10.63
2023-05-20T00:39:34.439Z,13.05
2023-05-20T00:42:03.580Z,7.25
2023-05-20T00:44:31.337Z,5.90
2023-05-20T00:46:59.157Z,17.85
2023-05-20T00:49:26.913Z,11.38
2023-05-20T00:51:54.665Z,8.20
2023-05-20T00:54:23.480Z,5.85
2023-05-20T00:56:52.155Z,7.63
2023-05-20T00:59:21.534Z,7.57
2023-05-20T01:01:49.415Z,14.45
2023-05-20T01:04:17.267Z,14.98
2023-05-20T01:06:46.244Z,17.85
2023-05-20T01:09:14.749Z,11.20
2023-05-20T01:11:49.687Z,13.02
2023-05-20T01:14:20.044Z,11.07
2023-05-20T01:16:50.517Z,8.95
2023-05-20T01:19:27.943Z,12.43
2023-05-20T01:21:57.660Z,16.48
2023-05-20T01:24:27.139Z,14.25
2023-05-20T01:26:58.125Z,6.93
2023-05-20T01:29:26.400Z,10.10
2023-05-20T01:31:56.279Z,10.02
2023-05-20T01:34:25.384Z,15.02
2023-05-20T01:36:55.147Z,8.05
2023-05-20T01:39:24.315Z,10.43
2023-05-20T01:41:55.270Z,16.33
2023-05-20T01:44:23.531Z,10.77
2023-05-20T01:46:51.510Z,17.65
2023-05-20T01:49:19.343Z,10.93
2023-05-20T01:51:47.125Z,10.50
2023-05-20T01:54:14.943Z,8.63
2023-05-20T01:56:42.713Z,13.05
2023-05-20T01:59:11.840Z,11.63
2023-05-20T02:01:39.554Z,13.48
2023-05-20T02:04:07.616Z,8.02
2023-05-20T02:06:35.412Z,10.70
2023-05-20T02:09:04.309Z,8.05
2023-05-20T02:11:32.124Z,8.93
2023-05-20T02:13:59.887Z,14.15
2023-05-20T02:16:29.173Z,9.70
2023-05-20T02:18:58.634Z,8.68
2023-05-20T02:21:27.024Z,13.15
2023-05-20T02:23:54.799Z,8.02
2023-05-20T02:26:22.732Z,10.32
2023-05-20T02:28:50.870Z,9.95
2023-05-20T02:31:19.045Z,11.65
2023-05-20T02:33:48.197Z,17.88
2023-05-20T02:36:17.203Z,23.73
2023-05-20T02:38:45.926Z,11.40
2023-05-20T02:41:13.720Z,11.13
2023-05-20T02:43:41.508Z,9.35
2023-05-20T02:46:09.274Z,10.27
2023-05-20T02:48:37.055Z,12.88
2023-05-20T02:51:06.892Z,10.00
2023-05-20T02:53:34.692Z,17.13
2023-05-20T02:56:02.606Z,8.10
2023-05-20T02:58:30.346Z,7.55
2023-05-20T03:00:58.701Z,15.90
2023-05-20T03:03:27.712Z,11.82
2023-05-20T03:05:55.488Z,10.07
2023-05-20T03:08:24.680Z,9.50
2023-05-20T03:10:52.588Z,18.13
2023-05-20T03:13:20.517Z,20.83
2023-05-20T03:15:48.331Z,10.30
2023-05-20T03:18:16.116Z,10.52
2023-05-20T03:20:44.064Z,12.75
2023-05-20T03:23:12.158Z,13.85
2023-05-20T03:25:41.663Z,16.88
2023-05-20T03:28:09.541Z,13.27
2023-05-20T03:30:37.765Z,14.63
2023-05-20T03:33:05.910Z,18.92
2023-05-20T03:35:33.952Z,18.52
2023-05-20T03:38:01.899Z,11.38
2023-05-20T03:40:29.801Z,13.45
2023-05-20T03:42:58.928Z,10.35
2023-05-20T03:45:26.729Z,17.80
2023-05-20T03:47:54.610Z,13.80
2023-05-20T03:50:22.374Z,12.90
2023-05-20T03:52:50.120Z,15.43
2023-05-20T03:55:20.396Z,11.68
2023-05-20T03:57:48.164Z,14.35
2023-05-20T04:00:18.784Z,12.25
2023-05-20T04:02:47.015Z,20.00
2023-05-20T04:05:14.822Z,8.77
2023-05-20T04:07:42.634Z,18.08
2023-05-20T04:10:11.646Z,19.60
2023-05-20T04:12:39.435Z,15.98
2023-05-20T04:15:08.729Z,19.45
2023-05-20T04:17:40.520Z,13.68
2023-05-20T04:20:10.164Z,14.75
2023-05-20T04:22:39.468Z,23.70
2023-05-20T04:25:07.984Z,12.73
2023-05-20T04:27:35.743Z,19.05
2023-05-20T04:30:04.090Z,18.92
2023-05-20T04:32:31.916Z,15.02
2023-05-20T04:35:02.078Z,12.77
2023-05-20T04:37:29.863Z,16.90
2023-05-20T04:39:57.614Z,22.40
2023-05-20T04:42:25.883Z,13.73
2023-05-20T04:44:53.633Z,11.50
2023-05-20T04:47:21.523Z,20.48
2023-05-20T04:49:50.324Z,15.07
2023-05-20T04:52:19.468Z,15.32
2023-05-20T04:54:47.262Z,18.42
2023-05-20T04:57:14.949Z,11.85
2023-05-20T04:59:42.697Z,15.40
2023-05-20T05:02:10.782Z,17.63
2023-05-20T05:04:38.727Z,13.93
2023-05-20T05:07:06.696Z,12.45
2023-05-20T05:09:36.133Z,21.67
2023-05-20T05:12:03.855Z,15.75
2023-05-20T05:14:31.550Z,16.90
2023-05-20T05:16:59.316Z,12.85
2023-05-20T05:19:27.138Z,16.15
2023-05-20T05:21:54.970Z,11.00
2023-05-20T05:24:22.749Z,12.38
2023-05-20T05:26:54.882Z,20.05
2023-05-20T05:29:22.794Z,15.27
2023-05-20T05:31:50.666Z,18.48
2023-05-20T05:34:18.547Z,19.45
2023-05-20T05:36:46.307Z,13.30
2023-05-20T05:39:14.070Z,22.50
2023-05-20T05:41:41.851Z,27.40
2023-05-20T05:44:10.947Z,17.17
2023-05-20T05:46:38.712Z,9.57
2023-05-20T05:49:06.536Z,14.95
2023-05-20T05:51:35.475Z,12.75
2023-05-20T05:54:04.235Z,18.17
2023-05-20T05:56:31.946Z,21.70
2023-05-20T05:58:59.720Z,15.07
2023-05-20T06:01:28.828Z,16.85
2023-05-20T06:03:56.578Z,14.68
2023-05-20T06:06:24.386Z,15.95
2023-05-20T06:08:52.100Z,15.55
2023-05-20T06:11:20.825Z,25.02
2023-05-20T06:13:48.586Z,14.52
2023-05-20T06:16:16.664Z,13.65
2023-05-20T06:18:47.214Z,19.40
2023-05-20T06:21:14.965Z,24.20
2023-05-20T06:23:42.732Z,13.20
2023-05-20T06:26:10.513Z,18.02
2023-05-20T06:28:38.328Z,17.83
2023-05-20T06:31:06.283Z,26.38
2023-05-20T06:33:34.084Z,20.02
2023-05-20T06:36:03.224Z,14.82
2023-05-20T06:38:31.083Z,15.45
2023-05-20T06:40:58.937Z,22.80
2023-05-20T06:43:26.777Z,18.20
2023-05-20T06:45:54.749Z,15.27
2023-05-20T06:48:22.522Z,18.77
2023-05-20T06:50:50.312Z,20.33
2023-05-20T06:53:19.428Z,16.85
2023-05-20T06:55:47.218Z,19.35
2023-05-20T06:58:15.141Z,15.43
2023-05-20T07:00:42.844Z,14.80
2023-05-20T07:03:11.770Z,25.05
2023-05-20T07:05:39.605Z,14.18
2023-05-20T07:08:07.329Z,14.63
2023-05-20T07:10:36.976Z,12.90
2023-05-20T07:13:04.951Z,24.20
2023-05-20T07:15:32.830Z,18.05
2023-05-20T07:18:01.128Z,13.35
2023-05-20T07:20:29.069Z,19.80
2023-05-20T07:22:56.842Z,14.93
2023-05-20T07:25:24.602Z,11.88
2023-05-20T07:27:53.738Z,19.70
2023-05-20T07:30:21.578Z,13.43
2023-05-20T07:32:49.364Z,18.50
2023-05-20T07:35:17.300Z,20.23
2023-05-20T07:37:45.186Z,11.98
2023-05-20T07:40:14.472Z,22.38
2023-05-20T07:42:42.274Z,12.15
2023-05-20T07:45:12.073Z,12.00
2023-05-20T07:47:39.928Z,15.07
2023-05-20T07:50:08.529Z,14.00
2023-05-20T07:52:51.802Z,15.52
2023-05-20T07:55:24.002Z,13.82
2023-05-20T07:57:51.716Z,12.77
2023-05-20T08:00:21.383Z,10.40
2023-05-20T08:02:49.296Z,18.90
2023-05-20T08:05:17.258Z,25.92
2023-05-20T08:07:45.506Z,12.40
2023-05-20T08:10:13.317Z,15.20
2023-05-20T08:12:41.297Z,13.50
2023-05-20T08:15:09.783Z,11.73
2023-05-20T08:17:39.415Z,10.80
2023-05-20T08:20:09.570Z,14.43
2023-05-20T08:22:37.771Z,17.88
2023-05-20T08:25:09.044Z,16.50
2023-05-20T08:27:37.497Z,16.83
2023-05-20T08:30:08.152Z,11.05
2023-05-20T08:32:36.251Z,15.75
2023-05-20T08:35:06.663Z,7.85
2023-05-20T08:37:34.433Z,9.32
2023-05-20T08:40:02.260Z,9.70
2023-05-20T08:42:30.087Z,12.13
2023-05-20T08:45:00.523Z,5.45
2023-05-20T08:47:28.385Z,17.88
2023-05-20T08:49:56.266Z,12.93
2023-05-20T08:52:26.153Z,18.73
2023-05-20T08:54:55.194Z,13.20
2023-05-20T08:57:23.502Z,20.10
2023-05-20T08:59:51.435Z,16.67
2023-05-20T09:02:19.203Z,14.95
2023-05-20T09:04:47.048Z,12.20
2023-05-20T09:07:14.815Z,13.10
2023-05-20T09:09:44.014Z,11.98
2023-05-20T09:12:11.740Z,12.55
2023-05-20T09:14:39.794Z,13.70
2023-05-20T09:17:08.519Z,12.82
2023-05-20T09:19:36.402Z,7.90
2023-05-20T09:22:05.998Z,17.35
2023-05-20T09:24:33.956Z,11.85
2023-05-20T09:27:03.121Z,11.43
2023-05-20T09:29:34.750Z,8.48
2023-05-20T09:32:03.998Z,10.88
2023-05-20T09:34:31.895Z,13.55
2023-05-20T09:37:01.432Z,15.15
2023-05-20T09:39:34.231Z,16.08
2023-05-20T09:42:08.223Z,11.10
2023-05-20T09:44:36.588Z,8.18
2023-05-20T09:47:08.596Z,10.38
2023-05-20T09:49:37.268Z,12.77
2023-05-20T09:52:05.863Z,8.20
2023-05-20T09:54:34.595Z,10.52
2023-05-20T09:57:06.320Z,13.25
2023-05-20T09:59:36.563Z,5.72
2023-05-20T10:02:04.833Z,9.82
2023-05-20T10:04:33.944Z,9.55
2023-05-20T10:07:40.674Z,8.38
2023-05-20T10:10:20.980Z,10.73
2023-05-20T10:13:01.211Z,8.18
2023-05-20T10:15:40.119Z,10.18
2023-05-20T10:18:16.440Z,7.18
2023-05-20T10:20:48.538Z,8.23
2023-05-20T10:23:24.038Z,9.40
2023-05-20T10:25:53.282Z,5.05
2023-05-20T10:28:31.091Z,9.70
2023-05-20T10:30:59.514Z,7.47
2023-05-20T10:33:28.536Z,10.18
2023-05-20T10:35:59.830Z,3.92
2023-05-20T10:38:27.616Z,7.07
2023-05-20T10:40:57.350Z,11.88
2023-05-20T10:43:29.703Z,12.75
2023-05-20T10:45:58.658Z,15.53
2023-05-20T10:48:28.629Z,7.07
2023-05-20T10:50:58.119Z,8.98
2023-05-20T10:53:34.228Z,7.53
2023-05-20T10:56:02.618Z,8.57
2023-05-20T10:58:38.871Z,7.07
2023-05-20T11:01:06.781Z,8.07
2023-05-20T11:03:36.395Z,10.48
2023-05-20T11:06:12.607Z,5.70
2023-05-20T11:08:40.512Z,10.32
2023-05-20T11:11:08.704Z,10.68
2023-05-20T11:13:37.850Z,10.68
2023-05-20T11:16:06.648Z,13.70
2023-05-20T11:18:34.474Z,13.65
2023-05-20T11:21:03.213Z,10.10
2023-05-20T11:23:31.868Z,8.85
2023-05-20T11:25:59.753Z,7.25
2023-05-20T11:28:27.594Z,7.65
2023-05-20T11:30:56.865Z,6.65
2023-05-20T11:33:27.873Z,5.82
2023-05-20T11:35:55.895Z,12.55
2023-05-20T11:38:23.738Z,9.68
2023-05-20T11:40:55.122Z,8.60
2023-05-20T11:43:24.469Z,5.68
2023-05-20T11:45:57.701Z,11.55
2023-05-20T11:48:26.071Z,9.18
2023-05-20T11:50:55.454Z,6.30
2023-05-20T11:53:24.465Z,6.00
2023-05-20T11:55:54.125Z,5.63
2023-05-20T11:58:24.262Z,9.85
2023-05-20T12:00:59.137Z,5.72
2023-05-20T12:03:34.803Z,4.95
2023-05-20T12:06:03.607Z,9.27
2023-05-20T12:08:31.348Z,10.57
2023-05-20T12:10:59.195Z,13.45
2023-05-20T12:13:27.101Z,4.43
2023-05-20T12:15:54.911Z,8.57
2023-05-20T12:18:23.412Z,8.85
2023-05-20T12:20:52.593Z,13.75
2023-05-20T12:23:21.333Z,8.77
2023-05-20T12:25:49.940Z,5.18
2023-05-20T12:28:18.127Z,8.77
2023-05-20T12:30:45.901Z,8.75
2023-05-20T12:33:13.701Z,9.23
2023-05-20T12:35:42.792Z,7.35
2023-05-20T12:38:11.956Z,5.07
2023-05-20T12:40:39.747Z,6.40
2023-05-20T12:43:08.105Z,11.60
2023-05-20T12:45:35.836Z,7.32
2023-05-20T12:48:03.813Z,9.00
2023-05-20T12:50:31.565Z,9.15
2023-05-20T12:52:59.332Z,4.85
2023-05-20T12:55:28.413Z,12.63
2023-05-20T12:57:56.334Z,13.82
2023-05-20T13:00:24.248Z,5.53
2023-05-20T13:02:52.486Z,12.45
2023-05-20T13:05:21.687Z,9.82
2023-05-20T13:07:50.045Z,7.18
2023-05-20T13:10:18.291Z,14.02
2023-05-20T13:12:47.481Z,10.23
2023-05-20T13:15:15.622Z,7.03
2023-05-20T13:17:43.655Z,6.10
2023-05-20T13:20:12.389Z,5.47
2023-05-20T13:22:40.176Z,15.00
2023-05-20T13:25:09.035Z,5.25
2023-05-20T13:27:36.845Z,11.00
2023-05-20T13:30:07.272Z,9.00
2023-05-20T13:32:35.163Z,12.75
2023-05-20T13:35:03.062Z,7.82
2023-05-20T13:37:31.086Z,7.38
2023-05-20T13:39:58.819Z,6.80
2023-05-20T13:42:26.745Z,4.30
2023-05-20T13:44:54.494Z,6.15
2023-05-20T13:47:23.596Z,6.88
2023-05-20T13:49:51.361Z,6.00
2023-05-20T13:52:19.104Z,9.90
2023-05-20T13:54:48.598Z,7.18
2023-05-20T13:57:16.607Z,8.50
2023-05-20T13:59:44.486Z,6.95
2023-05-20T14:02:12.299Z,6.40
2023-05-20T14:04:44.950Z,7.13
2023-05-20T14:07:12.824Z,5.38
2023-05-20T14:09:40.750Z,14.50
2023-05-20T14:12:09.266Z,11.27
2023-05-20T14:14:37.115Z,6.95
2023-05-20T14:17:05.207Z,12.30
2023-05-20T14:19:33.107Z,3.08
2023-05-20T14:22:03.262Z,10.70
2023-05-20T14:24:31.026Z,5.72
2023-05-20T14:26:58.755Z,3.65
2023-05-20T14:29:26.506Z,4.80
2023-05-20T14:31:54.357Z,9.90
2023-05-20T14:34:22.319Z,8.82
2023-05-20T14:36:50.176Z,6.85
2023-05-20T14:39:19.435Z,9.45
2023-05-20T14:41:47.248Z,4.18
2023-05-20T14:44:14.967Z,6.93
2023-05-20T14:46:42.807Z,6.13
2023-05-20T14:49:10.614Z,15.50
2023-05-20T14:51:38.364Z,14.05
2023-05-20T14:54:06.508Z,14.30
2023-05-20T14:56:35.832Z,8.77
2023-05-20T14:59:03.596Z,14.63
2023-05-20T15:01:31.402Z,5.63
2023-05-20T15:03:59.355Z,6.60
2023-05-20T15:06:27.367Z,10.15
2023-05-20T15:08:55.199Z,3.70
2023-05-20T15:11:23.122Z,9.63
2023-05-20T15:13:52.236Z,8.95
2023-05-20T15:16:20.078Z,8.27
2023-05-20T15:18:47.898Z,13.40
2023-05-20T15:21:15.682Z,6.20
2023-05-20T15:23:43.531Z,4.15
2023-05-20T15:26:12.025Z,3.80
2023-05-20T15:28:39.832Z,8.18
2023-05-20T15:31:08.967Z,5.93
2023-05-20T15:33:36.887Z,9.98
2023-05-20T15:36:05.312Z,12.65
2023-05-20T15:38:33.014Z,5.43
2023-05-20T15:41:00.898Z,4.40
2023-05-20T15:43:28.663Z,5.95
2023-05-20T15:45:56.469Z,3.30
2023-05-20T15:48:26.154Z,9.30
2023-05-20T15:50:53.997Z,6.88
2023-05-20T15:53:21.863Z,7.20
2023-05-20T15:55:49.595Z,4.10
2023-05-20T15:58:17.314Z,10.63
2023-05-20T16:00:45.076Z,4.50
2023-05-20T16:03:13.048Z,6.78
2023-05-20T16:05:42.239Z,8.07
2023-05-20T16:08:09.985Z,3.25
2023-05-20T16:10:37.755Z,3.42
2023-05-20T16:13:05.533Z,5.80
2023-05-20T16:15:36.430Z,8.02
2023-05-20T16:18:04.397Z,6.28
2023-05-20T16:20:32.354Z,9.45
2023-05-20T16:23:01.627Z,9.63
2023-05-20T16:25:29.376Z,7.25
2023-05-20T16:27:58.227Z,8.02
2023-05-20T16:30:26.116Z,8.55
2023-05-20T16:32:53.899Z,6.38
2023-05-20T16:35:21.747Z,13.43
2023-05-20T16:37:49.882Z,4.93
2023-05-20T16:40:19.008Z,6.68
2023-05-20T16:42:46.760Z,10.90
2023-05-20T16:45:14.515Z,11.38
2023-05-20T16:47:42.297Z,5.50
2023-05-20T16:50:11.225Z,10.05
2023-05-20T16:52:39.065Z,8.05
2023-05-20T16:55:08.449Z,11.20
2023-05-20T16:57:37.798Z,7.00
2023-05-20T17:00:09.509Z,8.48
2023-05-20T17:02:37.353Z,4.22
2023-05-20T17:05:05.536Z,3.95
2023-05-20T17:07:33.559Z,6.57
2023-05-20T17:10:01.562Z,3.40
2023-05-20T17:12:29.444Z,3.22
2023-05-20T17:14:58.640Z,6.95
2023-05-20T17:17:26.373Z,8.07
2023-05-20T17:19:54.755Z,5.50
2023-05-20T17:22:22.547Z,8.55
2023-05-20T17:24:50.411Z,7.72
2023-05-20T17:27:18.123Z,7.95
2023-05-20T17:29:45.996Z,10.27
2023-05-20T17:32:15.158Z,7.70
2023-05-20T17:34:42.955Z,8.57
2023-05-20T17:37:10.711Z,6.40
2023-05-20T17:39:38.539Z,3.38
2023-05-20T17:42:06.683Z,7.30
2023-05-20T17:44:34.419Z,3.97
2023-05-20T17:47:02.162Z,6.28
2023-05-20T17:49:31.368Z,10.02
2023-05-20T17:51:59.123Z,5.00
2023-05-20T17:54:26.890Z,4.15
2023-05-20T17:56:54.618Z,2.38
2023-05-20T17:59:22.407Z,5.80
2023-05-20T18:01:50.202Z,4.38
2023-05-20T18:04:18.099Z,10.50
2023-05-20T18:06:47.676Z,6.03
2023-05-20T18:09:15.429Z,7.97
2023-05-20T18:11:43.225Z,7.25
2023-05-20T18:14:11.128Z,2.33
2023-05-20T18:16:38.925Z,2.90
2023-05-20T18:19:06.741Z,4.40
2023-05-20T18:21:34.474Z,3.92
2023-05-20T18:24:03.603Z,10.13
2023-05-20T18:26:31.386Z,7.57
2023-05-20T18:28:59.165Z,4.55
2023-05-20T18:31:26.976Z,7.30
2023-05-20T18:33:54.813Z,7.00
2023-05-20T18:36:22.584Z,11.35
2023-05-20T18:38:50.346Z,7.05
2023-05-20T18:41:19.475Z,9.15
2023-05-20T18:43:47.270Z,2.60
2023-05-20T18:46:15.076Z,4.35
2023-05-20T18:48:43.098Z,8.00
2023-05-20T18:51:10.920Z,7.70
2023-05-20T18:53:38.667Z,6.13
2023-05-20T18:56:07.262Z,6.72
2023-05-20T18:58:36.393Z,3.15
2023-05-20T19:01:04.129Z,6.32
2023-05-20T19:03:31.870Z,3.17
2023-05-20T19:05:59.762Z,3.15
2023-05-20T19:08:27.615Z,2.63
2023-05-20T19:10:55.396Z,3.65
2023-05-20T19:13:23.124Z,4.57
2023-05-20T19:15:52.318Z,2.15
2023-05-20T19:18:21.430Z,4.53
2023-05-20T19:20:49.508Z,1.95
2023-05-20T19:23:17.261Z,3.72
2023-05-20T19:25:45.277Z,7.10
2023-05-20T19:28:13.295Z,4.88
2023-05-20T19:30:41.281Z,2.97
2023-05-20T19:33:10.819Z,3.05
2023-05-20T19:35:38.831Z,5.43
2023-05-20T19:38:06.865Z,5.80
2023-05-20T19:40:36.522Z,3.90
2023-05-20T19:43:04.258Z,4.22
2023-05-20T19:45:32.332Z,3.85
2023-05-20T19:48:00.196Z,1.98
2023-05-20T19:50:29.457Z,3.80
2023-05-20T19:52:57.252Z,2.80
2023-05-20T19:55:24.962Z,7.63
2023-05-20T19:57:53.622Z,3.30
2023-05-20T20:00:21.664Z,5.10
2023-05-20T20:02:50.101Z,5.15
2023-05-20T20:05:18.135Z,3.35
2023-05-20T20:07:47.967Z,2.75
2023-05-20T20:10:15.729Z,6.13
2023-05-20T20:12:43.522Z,8.00
2023-05-20T20:15:11.887Z,3.85
2023-05-20T20:17:46.029Z,6.07
2023-05-20T20:20:14.891Z,4.03
2023-05-20T20:22:42.736Z,3.95
2023-05-20T20:25:13.823Z,9.52
2023-05-20T20:27:43.864Z,7.85
2023-05-20T20:30:12.933Z,2.53
2023-05-20T20:32:41.295Z,4.75
2023-05-20T20:35:10.803Z,3.15
2023-05-20T20:37:38.621Z,3.75
2023-05-20T20:40:13.641Z,6.38
2023-05-20T20:42:45.141Z,4.00
2023-05-20T20:45:13.339Z,3.08
2023-05-20T20:47:41.481Z,4.07
2023-05-20T20:50:10.000Z,6.68
2023-05-20T20:52:38.670Z,1.48
2023-05-20T20:55:07.453Z,3.72
2023-05-20T20:57:35.550Z,7.35
2023-05-20T21:00:15.971Z,4.82
2023-05-20T21:02:44.015Z,3.80
2023-05-20T21:05:11.839Z,4.25
2023-05-20T21:07:42.448Z,2.20
2023-05-20T21:10:11.234Z,5.38
2023-05-20T21:12:39.007Z,1.58
2023-05-20T21:15:09.961Z,3.67
2023-05-20T21:17:37.722Z,3.75
2023-05-20T21:20:07.426Z,4.07
2023-05-20T21:22:35.236Z,5.05
2023-05-20T21:25:03.146Z,4.60
2023-05-20T21:27:30.936Z,6.18
2023-05-20T21:29:58.684Z,2.78
2023-05-20T21:32:27.879Z,2.35
2023-05-20T21:34:58.157Z,3.10
2023-05-20T21:37:26.103Z,5.40
2023-05-20T21:39:53.874Z,2.97
2023-05-20T21:42:21.598Z,3.58
2023-05-20T21:44:49.355Z,2.08
2023-05-20T21:47:17.767Z,2.15
2023-05-20T21:49:47.401Z,3.72
2023-05-20T21:52:15.257Z,3.65
2023-05-20T21:54:43.036Z,3.10
2023-05-20T21:57:10.775Z,3.75
2023-05-20T21:59:38.567Z,2.55
2023-05-20T22:02:06.780Z,3.08
2023-05-20T22:04:34.769Z,2.53
2023-05-20T22:07:03.998Z,6.60
2023-05-20T22:09:31.750Z,4.75
2023-05-20T22:11:59.821Z,7.93
2023-05-20T22:14:27.689Z,1.52
2023-05-20T22:16:55.905Z,6.55
2023-05-20T22:19:23.723Z,4.20
2023-05-20T22:21:51.513Z,10.52
2023-05-20T22:24:20.690Z,4.38
2023-05-20T22:26:48.431Z,5.90
2023-05-20T22:29:16.192Z,3.40
2023-05-20T22:31:43.961Z,3.65
2023-05-20T22:34:11.714Z,2.58
2023-05-20T22:36:39.446Z,3.13
2023-05-20T22:39:07.211Z,2.78
2023-05-20T22:41:36.577Z,5.45
2023-05-20T22:44:04.514Z,6.72
2023-05-20T22:46:32.449Z,4.60
2023-05-20T22:49:01.717Z,2.83
2023-05-20T22:51:31.205Z,9.00
2023-05-20T22:53:58.979Z,5.43
2023-05-20T22:56:26.864Z,3.88
2023-05-20T22:58:55.969Z,3.22
2023-05-20T23:01:24.058Z,3.45
2023-05-20T23:03:53.655Z,5.38
2023-05-20T23:06:22.688Z,5.80
2023-05-20T23:08:50.844Z,5.95
2023-05-20T23:11:18.622Z,6.28
2023-05-20T23:13:46.515Z,10.90
2023-05-20T23:16:15.688Z,3.72
2023-05-20T23:18:43.496Z,3.40
2023-05-20T23:21:11.746Z,3.28
2023-05-20T23:23:39.510Z,4.72
2023-05-20T23:26:07.820Z,7.60
2023-05-20T23:28:35.683Z,2.30
2023-05-20T23:31:03.514Z,8.75
2023-05-20T23:33:32.750Z,5.97
2023-05-20T23:36:00.568Z,4.65
2023-05-20T23:38:28.372Z,3.45
2023-05-20T23:40:56.106Z,6.95
2023-05-20T23:43:23.935Z,3.47
2023-05-20T23:45:51.718Z,5.63
2023-05-20T23:48:19.906Z,2.78
2023-05-20T23:50:49.309Z,4.82
2023-05-20T23:53:17.107Z,3.47
2023-05-20T23:55:45.379Z,3.58
2023-05-20T23:58:13.192Z,8.20
